sensor_id;sensor_type;location;lat;lon;timestamp;temperature;humidity
20139;DHT22;10230;51.502;10.800;2022-07-29T06:01:08;20.50;99.90
20139;DHT22;10230;51.502;10.800;2022-07-29T06:03:34;20.50;99.90
20139;DHT22;10230;51.502;10.800;2022-07-29T06:06:00;20.60;99.90
20139;DHT22;10230;51.502;10.800;2022-07-29T06:08:25;20.70;99.90
20139;DHT22;10230;51.502;10.800;2022-07-29T06:10:51;20.90;99.90
20139;DHT22;10230;51.502;10.800;2022-07-29T06:35:14;22.60;89.50
20139;DHT22;10230;51.502;10.800;2022-07-29T06:37:40;22.60;90.00
20139;DHT22;10230;51.502;10.800;2022-07-29T06:40:06;22.70;88.40
20139;DHT22;10230;51.502;10.800;2022-07-29T06:42:50;22.80;87.70
20139;DHT22;10230;51.502;10.800;2022-07-29T06:45:16;22.90;86.60
20139;DHT22;10230;51.502;10.800;2022-07-29T06:47:41;22.90;85.10
20139;DHT22;10230;51.502;10.800;2022-07-29T06:50:07;22.90;84.60
20139;DHT22;10230;51.502;10.800;2022-07-29T06:52:37;22.70;84.10
20139;DHT22;10230;51.502;10.800;2022-07-29T06:55:02;22.60;84.60
20139;DHT22;10230;51.502;10.800;2022-07-29T06:57:28;22.70;84.90
20139;DHT22;10230;51.502;10.800;2022-07-29T06:59:56;22.80;84.20
20139;DHT22;10230;51.502;10.800;2022-07-29T07:02:22;23.10;84.00
20139;DHT22;10230;51.502;10.800;2022-07-29T07:04:48;23.40;83.10
20139;DHT22;10230;51.502;10.800;2022-07-29T07:07:13;23.70;81.90
20139;DHT22;10230;51.502;10.800;2022-07-29T07:09:39;24.20;99.90
20139;DHT22;10230;51.502;10.800;2022-07-29T07:16:57;24.60;99.90
20139;DHT22;10230;51.502;10.800;2022-07-29T07:19:22;24.70;88.60
20139;DHT22;10230;51.502;10.800;2022-07-29T07:21:48;24.80;95.80
20139;DHT22;10230;51.502;10.800;2022-07-29T07:24:14;25.00;76.10
20139;DHT22;10230;51.502;10.800;2022-07-29T07:26:40;25.20;74.20
20139;DHT22;10230;51.502;10.800;2022-07-29T07:29:05;25.20;74.90
20139;DHT22;10230;51.502;10.800;2022-07-29T07:33:58;25.40;78.50
20139;DHT22;10230;51.502;10.800;2022-07-29T07:36:23;25.50;75.90
20139;DHT22;10230;51.502;10.800;2022-07-29T07:38:49;25.50;74.00
20139;DHT22;10230;51.502;10.800;2022-07-29T07:41:15;25.50;74.00
20139;DHT22;10230;51.502;10.800;2022-07-29T07:43:41;25.50;74.40
20139;DHT22;10230;51.502;10.800;2022-07-29T07:46:06;25.50;75.10
20139;DHT22;10230;51.502;10.800;2022-07-29T07:48:32;25.50;75.70
20139;DHT22;10230;51.502;10.800;2022-07-29T07:51:00;25.70;71.90
20139;DHT22;10230;51.502;10.800;2022-07-29T07:53:26;25.80;72.30
20139;DHT22;10230;51.502;10.800;2022-07-29T07:58:17;26.50;69.50
20139;DHT22;10230;51.502;10.800;2022-07-29T08:00:43;26.60;70.00
20139;DHT22;10230;51.502;10.800;2022-07-29T08:03:09;27.20;67.30
20139;DHT22;10230;51.502;10.800;2022-07-29T08:05:38;27.20;67.80
20139;DHT22;10230;51.502;10.800;2022-07-29T08:08:04;27.40;67.10
20139;DHT22;10230;51.502;10.800;2022-07-29T08:10:29;27.30;66.30
20139;DHT22;10230;51.502;10.800;2022-07-29T08:13:14;27.30;66.20
20139;DHT22;10230;51.502;10.800;2022-07-29T08:15:40;26.90;66.30
20139;DHT22;10230;51.502;10.800;2022-07-29T08:18:10;26.70;66.90
20139;DHT22;10230;51.502;10.800;2022-07-29T08:20:36;26.60;67.40
20139;DHT22;10230;51.502;10.800;2022-07-29T08:23:05;26.40;67.50
20139;DHT22;10230;51.502;10.800;2022-07-29T08:25:32;26.30;68.10
20139;DHT22;10230;51.502;10.800;2022-07-29T08:27:58;26.30;68.20
20139;DHT22;10230;51.502;10.800;2022-07-29T08:30:24;26.40;67.90
20139;DHT22;10230;51.502;10.800;2022-07-29T08:32:50;26.70;67.10
20139;DHT22;10230;51.502;10.800;2022-07-29T08:35:19;27.60;64.40
20139;DHT22;10230;51.502;10.800;2022-07-29T08:37:45;27.70;65.10
20139;DHT22;10230;51.502;10.800;2022-07-29T08:49:56;36.40;48.40
20139;DHT22;10230;51.502;10.800;2022-07-29T08:54:52;38.80;73.60
20139;DHT22;10230;51.502;10.800;2022-07-29T08:59:46;40.80;75.80
20139;DHT22;10230;51.502;10.800;2022-07-29T09:02:16;42.40;38.20
20139;DHT22;10230;51.502;10.800;2022-07-29T09:07:10;46.70;31.30
20139;DHT22;10230;51.502;10.800;2022-07-29T09:12:05;48.00;29.70
20139;DHT22;10230;51.502;10.800;2022-07-29T09:14:33;48.80;28.70
20139;DHT22;10230;51.502;10.800;2022-07-29T09:16:59;49.20;28.70
20139;DHT22;10230;51.502;10.800;2022-07-29T09:19:26;48.90;28.30
20139;DHT22;10230;51.502;10.800;2022-07-29T09:34:09;37.60;40.90
20139;DHT22;10230;51.502;10.800;2022-07-29T09:56:05;32.20;42.00
20139;DHT22;10230;51.502;10.800;2022-07-29T09:58:31;31.40;44.10
20139;DHT22;10230;51.502;10.800;2022-07-29T10:00:59;30.60;45.30
20139;DHT22;10230;51.502;10.800;2022-07-29T10:03:24;30.00;46.70
20139;DHT22;10230;51.502;10.800;2022-07-29T10:06:06;29.20;48.40
20139;DHT22;10230;51.502;10.800;2022-07-29T10:08:32;28.40;48.70
20139;DHT22;10230;51.502;10.800;2022-07-29T10:11:20;27.90;50.00
20139;DHT22;10230;51.502;10.800;2022-07-29T10:13:48;27.60;50.70
20139;DHT22;10230;51.502;10.800;2022-07-29T10:16:15;27.30;51.30
20139;DHT22;10230;51.502;10.800;2022-07-29T10:18:42;27.10;51.80
20139;DHT22;10230;51.502;10.800;2022-07-29T10:21:09;26.80;52.50
20139;DHT22;10230;51.502;10.800;2022-07-29T10:23:35;26.70;52.80
20139;DHT22;10230;51.502;10.800;2022-07-29T10:26:02;26.60;53.10
20139;DHT22;10230;51.502;10.800;2022-07-29T10:28:30;26.40;53.50
20139;DHT22;10230;51.502;10.800;2022-07-29T10:31:01;26.30;53.90
20139;DHT22;10230;51.502;10.800;2022-07-29T10:34:30;26.20;54.60
20139;DHT22;10230;51.502;10.800;2022-07-29T10:44:44;26.90;53.80
20139;DHT22;10230;51.502;10.800;2022-07-29T10:47:24;27.60;53.00
20139;DHT22;10230;51.502;10.800;2022-07-29T10:50:01;28.50;54.30
20139;DHT22;10230;51.502;10.800;2022-07-29T10:58:16;37.30;37.30
20139;DHT22;10230;51.502;10.800;2022-07-29T11:00:43;37.30;37.60
20139;DHT22;10230;51.502;10.800;2022-07-29T11:03:09;37.90;35.10
20139;DHT22;10230;51.502;10.800;2022-07-29T11:05:57;38.10;34.50
20139;DHT22;10230;51.502;10.800;2022-07-29T11:08:23;38.10;34.20
20139;DHT22;10230;51.502;10.800;2022-07-29T11:10:51;37.80;34.50
20139;DHT22;10230;51.502;10.800;2022-07-29T11:13:50;37.40;35.10
20139;DHT22;10230;51.502;10.800;2022-07-29T11:31:20;38.60;80.10
20139;DHT22;10230;51.502;10.800;2022-07-29T11:33:56;37.90;34.40
20139;DHT22;10230;51.502;10.800;2022-07-29T11:36:22;37.20;34.90
20139;DHT22;10230;51.502;10.800;2022-07-29T11:38:48;36.90;35.40
20139;DHT22;10230;51.502;10.800;2022-07-29T11:41:20;36.90;35.30
20139;DHT22;10230;51.502;10.800;2022-07-29T11:43:50;37.00;35.20
20139;DHT22;10230;51.502;10.800;2022-07-29T11:46:18;37.20;35.20
20139;DHT22;10230;51.502;10.800;2022-07-29T11:48:43;37.30;35.40
20139;DHT22;10230;51.502;10.800;2022-07-29T11:51:10;37.40;34.70
20139;DHT22;10230;51.502;10.800;2022-07-29T11:53:37;37.20;35.60
20139;DHT22;10230;51.502;10.800;2022-07-29T11:56:02;37.40;35.60
20139;DHT22;10230;51.502;10.800;2022-07-29T11:58:29;37.80;34.80
20139;DHT22;10230;51.502;10.800;2022-07-29T12:00:55;38.00;34.00
20139;DHT22;10230;51.502;10.800;2022-07-29T12:03:25;38.10;33.90
20139;DHT22;10230;51.502;10.800;2022-07-29T12:15:38;34.50;36.40
20139;DHT22;10230;51.502;10.800;2022-07-29T12:18:11;34.30;37.10
20139;DHT22;10230;51.502;10.800;2022-07-29T12:20:37;34.20;37.70
20139;DHT22;10230;51.502;10.800;2022-07-29T12:23:07;34.00;37.40
20139;DHT22;10230;51.502;10.800;2022-07-29T12:25:41;33.90;37.80
20139;DHT22;10230;51.502;10.800;2022-07-29T12:28:12;33.90;37.90
20139;DHT22;10230;51.502;10.800;2022-07-29T12:33:18;34.30;37.70
20139;DHT22;10230;51.502;10.800;2022-07-29T12:38:13;33.80;37.60
20139;DHT22;10230;51.502;10.800;2022-07-29T12:40:39;33.60;38.60
20139;DHT22;10230;51.502;10.800;2022-07-29T12:47:58;32.20;51.00
20139;DHT22;10230;51.502;10.800;2022-07-29T12:50:24;32.00;48.50
20139;DHT22;10230;51.502;10.800;2022-07-29T12:52:50;31.90;41.80
20139;DHT22;10230;51.502;10.800;2022-07-29T12:55:37;31.80;41.60
20139;DHT22;10230;51.502;10.800;2022-07-29T12:58:02;31.90;41.70
20139;DHT22;10230;51.502;10.800;2022-07-29T13:00:27;31.80;42.20
20139;DHT22;10230;51.502;10.800;2022-07-29T13:02:58;31.90;42.50
20139;DHT22;10230;51.502;10.800;2022-07-29T13:05:41;31.60;42.40
20139;DHT22;10230;51.502;10.800;2022-07-29T13:08:14;31.70;42.60
20139;DHT22;10230;51.502;10.800;2022-07-29T13:10:41;31.70;42.60
20139;DHT22;10230;51.502;10.800;2022-07-29T13:13:14;31.70;42.80
20139;DHT22;10230;51.502;10.800;2022-07-29T13:15:41;31.60;42.70
20139;DHT22;10230;51.502;10.800;2022-07-29T13:20:33;31.20;42.60
20139;DHT22;10230;51.502;10.800;2022-07-29T13:23:00;31.10;43.80
20139;DHT22;10230;51.502;10.800;2022-07-29T13:25:28;31.20;43.70
20139;DHT22;10230;51.502;10.800;2022-07-29T13:27:54;31.30;43.70
20139;DHT22;10230;51.502;10.800;2022-07-29T13:30:21;31.20;43.80
20139;DHT22;10230;51.502;10.800;2022-07-29T13:32:47;31.10;44.10
20139;DHT22;10230;51.502;10.800;2022-07-29T13:35:13;31.00;44.30
20139;DHT22;10230;51.502;10.800;2022-07-29T13:40:09;30.90;46.30
20139;DHT22;10230;51.502;10.800;2022-07-29T13:42:35;30.70;54.60
20139;DHT22;10230;51.502;10.800;2022-07-29T13:45:02;30.50;54.40
20139;DHT22;10230;51.502;10.800;2022-07-29T13:47:28;30.40;53.40
20139;DHT22;10230;51.502;10.800;2022-07-29T13:49:54;30.50;56.10
20139;DHT22;10230;51.502;10.800;2022-07-29T13:52:20;30.50;54.10
20139;DHT22;10230;51.502;10.800;2022-07-29T13:54:46;30.50;55.80
20139;DHT22;10230;51.502;10.800;2022-07-29T14:02:06;29.90;45.80
20139;DHT22;10230;51.502;10.800;2022-07-29T14:04:32;29.80;47.00
20139;DHT22;10230;51.502;10.800;2022-07-29T14:06:57;29.70;47.20
20139;DHT22;10230;51.502;10.800;2022-07-29T14:09:23;29.80;47.30
20139;DHT22;10230;51.502;10.800;2022-07-29T14:11:49;29.90;47.20
20139;DHT22;10230;51.502;10.800;2022-07-29T14:14:17;30.00;47.10
20139;DHT22;10230;51.502;10.800;2022-07-29T14:16:42;30.20;47.00
20139;DHT22;10230;51.502;10.800;2022-07-29T14:19:08;30.10;46.50
20139;DHT22;10230;51.502;10.800;2022-07-29T14:21:34;30.10;46.70
20139;DHT22;10230;51.502;10.800;2022-07-29T14:24:00;30.10;46.60
20139;DHT22;10230;51.502;10.800;2022-07-29T14:26:26;30.30;46.50
20139;DHT22;10230;51.502;10.800;2022-07-29T14:28:51;30.40;46.00
20139;DHT22;10230;51.502;10.800;2022-07-29T14:31:17;30.30;46.20
20139;DHT22;10230;51.502;10.800;2022-07-29T14:33:43;30.40;46.20
20139;DHT22;10230;51.502;10.800;2022-07-29T14:36:08;30.40;46.00
20139;DHT22;10230;51.502;10.800;2022-07-29T14:38:35;30.30;46.10
20139;DHT22;10230;51.502;10.800;2022-07-29T14:41:01;30.00;46.50
20139;DHT22;10230;51.502;10.800;2022-07-29T14:43:26;30.00;46.80
20139;DHT22;10230;51.502;10.800;2022-07-29T14:45:52;30.10;46.60
20139;DHT22;10230;51.502;10.800;2022-07-29T14:48:18;30.20;46.30
20139;DHT22;10230;51.502;10.800;2022-07-29T14:50:43;30.10;46.30
20139;DHT22;10230;51.502;10.800;2022-07-29T14:53:09;30.00;46.60
20139;DHT22;10230;51.502;10.800;2022-07-29T14:55:35;29.90;46.60
20139;DHT22;10230;51.502;10.800;2022-07-29T14:58:00;29.70;46.70
20139;DHT22;10230;51.502;10.800;2022-07-29T15:00:26;29.70;46.70
20139;DHT22;10230;51.502;10.800;2022-07-29T15:02:52;29.70;46.80
20139;DHT22;10230;51.502;10.800;2022-07-29T15:05:18;29.80;46.80
20139;DHT22;10230;51.502;10.800;2022-07-29T15:07:43;30.00;46.40
20139;DHT22;10230;51.502;10.800;2022-07-29T15:10:09;30.10;46.30
20139;DHT22;10230;51.502;10.800;2022-07-29T15:12:35;30.30;46.30
20139;DHT22;10230;51.502;10.800;2022-07-29T15:15:01;30.50;45.90
20139;DHT22;10230;51.502;10.800;2022-07-29T15:17:26;30.60;45.30
20139;DHT22;10230;51.502;10.800;2022-07-29T15:19:52;30.60;45.30
20139;DHT22;10230;51.502;10.800;2022-07-29T15:22:18;30.70;44.90
20139;DHT22;10230;51.502;10.800;2022-07-29T15:24:44;30.70;44.80
20139;DHT22;10230;51.502;10.800;2022-07-29T15:27:10;30.50;45.10
20139;DHT22;10230;51.502;10.800;2022-07-29T15:29:43;30.50;45.50
20139;DHT22;10230;51.502;10.800;2022-07-29T15:32:09;30.60;45.90
20139;DHT22;10230;51.502;10.800;2022-07-29T15:34:35;30.80;45.80
20139;DHT22;10230;51.502;10.800;2022-07-29T15:37:01;31.00;45.40
20139;DHT22;10230;51.502;10.800;2022-07-29T15:39:26;31.20;47.60
20139;DHT22;10230;51.502;10.800;2022-07-29T15:41:52;31.40;49.60
20139;DHT22;10230;51.502;10.800;2022-07-29T15:44:18;31.30;44.50
20139;DHT22;10230;51.502;10.800;2022-07-29T15:46:44;31.20;44.80
20139;DHT22;10230;51.502;10.800;2022-07-29T15:49:29;31.20;44.90
20139;DHT22;10230;51.502;10.800;2022-07-29T15:52:02;31.00;45.00
20139;DHT22;10230;51.502;10.800;2022-07-29T15:54:32;30.90;46.00
20139;DHT22;10230;51.502;10.800;2022-07-29T15:56:57;30.70;45.80
20139;DHT22;10230;51.502;10.800;2022-07-29T15:59:23;30.60;45.80
20139;DHT22;10230;51.502;10.800;2022-07-29T16:01:49;30.50;46.40
20139;DHT22;10230;51.502;10.800;2022-07-29T16:04:15;30.40;46.10
20139;DHT22;10230;51.502;10.800;2022-07-29T16:06:41;30.30;46.20
20139;DHT22;10230;51.502;10.800;2022-07-29T16:09:07;30.10;46.10
20139;DHT22;10230;51.502;10.800;2022-07-29T16:11:33;29.90;46.70
20139;DHT22;10230;51.502;10.800;2022-07-29T16:13:59;29.70;47.00
20139;DHT22;10230;51.502;10.800;2022-07-29T16:16:25;29.50;47.10
20139;DHT22;10230;51.502;10.800;2022-07-29T16:18:50;29.30;47.30
20139;DHT22;10230;51.502;10.800;2022-07-29T16:23:43;29.10;46.80
20139;DHT22;10230;51.502;10.800;2022-07-29T16:26:08;29.00;48.00
20139;DHT22;10230;51.502;10.800;2022-07-29T16:28:34;29.00;48.20
20139;DHT22;10230;51.502;10.800;2022-07-29T16:31:00;28.80;47.80
20139;DHT22;10230;51.502;10.800;2022-07-29T16:33:25;28.70;48.10
20139;DHT22;10230;51.502;10.800;2022-07-29T16:35:51;29.70;49.20
20139;DHT22;10230;51.502;10.800;2022-07-29T16:38:17;28.70;48.50
20139;DHT22;10230;51.502;10.800;2022-07-29T16:40:43;28.60;48.20
20139;DHT22;10230;51.502;10.800;2022-07-29T16:43:09;28.60;48.00
20139;DHT22;10230;51.502;10.800;2022-07-29T16:45:35;28.70;48.70
20139;DHT22;10230;51.502;10.800;2022-07-29T16:48:01;28.70;48.20
20139;DHT22;10230;51.502;10.800;2022-07-29T16:50:28;28.70;48.40
20139;DHT22;10230;51.502;10.800;2022-07-29T16:52:54;28.70;48.00
20139;DHT22;10230;51.502;10.800;2022-07-29T16:55:20;28.70;48.20
20139;DHT22;10230;51.502;10.800;2022-07-29T16:57:46;28.70;47.90
20139;DHT22;10230;51.502;10.800;2022-07-29T17:00:13;28.70;48.00
20139;DHT22;10230;51.502;10.800;2022-07-29T17:02:39;28.60;48.00
20139;DHT22;10230;51.502;10.800;2022-07-29T17:05:09;28.60;48.00
20139;DHT22;10230;51.502;10.800;2022-07-29T17:07:37;28.60;48.30
20139;DHT22;10230;51.502;10.800;2022-07-29T17:10:03;28.50;49.00
20139;DHT22;10230;51.502;10.800;2022-07-29T17:12:34;28.50;48.40
20139;DHT22;10230;51.502;10.800;2022-07-29T17:15:01;28.40;48.90
20139;DHT22;10230;51.502;10.800;2022-07-29T17:17:27;28.30;49.10
20139;DHT22;10230;51.502;10.800;2022-07-29T17:19:52;28.20;49.00
20139;DHT22;10230;51.502;10.800;2022-07-29T17:22:18;28.20;49.20
20139;DHT22;10230;51.502;10.800;2022-07-29T17:24:44;28.00;49.10
20139;DHT22;10230;51.502;10.800;2022-07-29T17:27:10;28.00;49.60
20139;DHT22;10230;51.502;10.800;2022-07-29T17:29:36;27.90;49.50
20139;DHT22;10230;51.502;10.800;2022-07-29T17:32:03;27.70;49.60
20139;DHT22;10230;51.502;10.800;2022-07-29T17:36:55;27.50;49.30
20139;DHT22;10230;51.502;10.800;2022-07-29T17:39:21;27.40;50.10
20139;DHT22;10230;51.502;10.800;2022-07-29T17:41:46;27.40;50.20
20139;DHT22;10230;51.502;10.800;2022-07-29T17:44:12;27.20;50.20
20139;DHT22;10230;51.502;10.800;2022-07-29T17:46:38;27.10;50.50
20139;DHT22;10230;51.502;10.800;2022-07-29T17:49:05;27.10;50.50
20139;DHT22;10230;51.502;10.800;2022-07-29T17:51:31;27.00;51.40
20139;DHT22;10230;51.502;10.800;2022-07-29T17:53:57;26.90;51.10
20139;DHT22;10230;51.502;10.800;2022-07-29T17:56:23;26.80;51.30
20139;DHT22;10230;51.502;10.800;2022-07-29T18:01:16;26.70;51.10
20139;DHT22;10230;51.502;10.800;2022-07-29T18:03:42;26.40;74.70
20139;DHT22;10230;51.502;10.800;2022-07-29T18:06:08;26.50;52.20
20139;DHT22;10230;51.502;10.800;2022-07-29T18:11:04;26.40;52.10
20139;DHT22;10230;51.502;10.800;2022-07-29T18:13:31;26.60;53.10
20139;DHT22;10230;51.502;10.800;2022-07-29T18:18:23;26.00;52.40
20139;DHT22;10230;51.502;10.800;2022-07-29T18:20:48;25.90;53.30
20139;DHT22;10230;51.502;10.800;2022-07-29T18:23:14;25.80;54.20
20139;DHT22;10230;51.502;10.800;2022-07-29T18:25:41;25.70;53.80
20139;DHT22;10230;51.502;10.800;2022-07-29T18:28:07;25.50;53.90
20139;DHT22;10230;51.502;10.800;2022-07-29T18:30:34;25.50;54.10
20139;DHT22;10230;51.502;10.800;2022-07-29T18:33:01;25.40;54.30
20139;DHT22;10230;51.502;10.800;2022-07-29T18:35:26;25.30;54.60
20139;DHT22;10230;51.502;10.800;2022-07-29T18:37:52;25.30;54.90
20139;DHT22;10230;51.502;10.800;2022-07-29T18:40:23;25.20;55.10
20139;DHT22;10230;51.502;10.800;2022-07-29T18:42:50;25.10;55.30
20139;DHT22;10230;51.502;10.800;2022-07-29T18:45:16;25.00;55.50
20139;DHT22;10230;51.502;10.800;2022-07-29T18:47:42;25.00;55.90
20139;DHT22;10230;51.502;10.800;2022-07-29T18:50:08;24.90;56.00
20139;DHT22;10230;51.502;10.800;2022-07-29T18:52:34;24.90;56.10
20139;DHT22;10230;51.502;10.800;2022-07-29T18:55:00;24.90;56.40
20139;DHT22;10230;51.502;10.800;2022-07-29T18:57:27;24.80;56.50
20139;DHT22;10230;51.502;10.800;2022-07-29T19:04:46;24.70;56.50
20139;DHT22;10230;51.502;10.800;2022-07-29T19:07:14;24.60;57.30
20139;DHT22;10230;51.502;10.800;2022-07-29T19:09:42;24.60;57.50
20139;DHT22;10230;51.502;10.800;2022-07-29T19:12:08;24.50;57.70
20139;DHT22;10230;51.502;10.800;2022-07-29T19:14:33;24.50;67.10
20139;DHT22;10230;51.502;10.800;2022-07-29T19:16:59;24.40;62.60
20139;DHT22;10230;51.502;10.800;2022-07-29T19:19:25;24.40;63.00
20139;DHT22;10230;51.502;10.800;2022-07-29T19:24:17;24.30;57.70
20139;DHT22;10230;51.502;10.800;2022-07-29T19:26:43;24.30;58.40
20139;DHT22;10230;51.502;10.800;2022-07-29T19:29:12;24.30;63.80
20139;DHT22;10230;51.502;10.800;2022-07-29T19:31:38;24.20;63.70
20139;DHT22;10230;51.502;10.800;2022-07-29T19:34:05;24.20;59.40
20139;DHT22;10230;51.502;10.800;2022-07-29T19:36:32;24.20;58.90
20139;DHT22;10230;51.502;10.800;2022-07-29T19:38:58;24.20;59.00
20139;DHT22;10230;51.502;10.800;2022-07-29T19:41:25;24.10;59.10
20139;DHT22;10230;51.502;10.800;2022-07-29T19:43:51;24.10;59.60
20139;DHT22;10230;51.502;10.800;2022-07-29T19:46:17;24.10;69.60
20139;DHT22;10230;51.502;10.800;2022-07-29T19:48:42;24.20;59.20
20139;DHT22;10230;51.502;10.800;2022-07-29T19:51:08;24.10;59.80
20139;DHT22;10230;51.502;10.800;2022-07-29T19:53:34;24.00;59.80
20139;DHT22;10230;51.502;10.800;2022-07-29T19:56:00;24.00;60.00
20139;DHT22;10230;51.502;10.800;2022-07-29T19:58:25;24.00;69.10
20139;DHT22;10230;51.502;10.800;2022-07-29T20:00:51;24.00;66.00
20139;DHT22;10230;51.502;10.800;2022-07-29T20:03:17;24.00;70.70
20139;DHT22;10230;51.502;10.800;2022-07-29T20:05:42;23.90;59.80
20139;DHT22;10230;51.502;10.800;2022-07-29T20:08:08;23.90;60.70
20139;DHT22;10230;51.502;10.800;2022-07-29T20:10:34;23.90;68.20
20139;DHT22;10230;51.502;10.800;2022-07-29T20:15:26;23.80;67.50
20139;DHT22;10230;51.502;10.800;2022-07-29T20:20:20;23.30;75.00
20139;DHT22;10230;51.502;10.800;2022-07-29T20:22:47;23.00;77.60
20139;DHT22;10230;51.502;10.800;2022-07-29T20:32:33;22.00;99.90
20139;DHT22;10230;51.502;10.800;2022-07-29T20:34:59;21.80;99.90
20139;DHT22;10230;51.502;10.800;2022-07-29T22:27:17;21.00;99.90
20139;DHT22;10230;51.502;10.800;2022-07-29T22:29:43;21.00;99.90
20139;DHT22;10230;51.502;10.800;2022-07-29T22:32:09;20.80;99.90
20139;DHT22;10230;51.502;10.800;2022-07-29T22:34:34;20.60;99.90
20139;DHT22;10230;51.502;10.800;2022-07-29T22:37:00;20.50;99.90
20139;DHT22;10230;51.502;10.800;2022-07-29T22:39:26;20.40;99.90
20139;DHT22;10230;51.502;10.800;2022-07-29T22:41:52;20.30;99.90
20139;DHT22;10230;51.502;10.800;2022-07-29T22:44:17;20.20;99.90
20139;DHT22;10230;51.502;10.800;2022-07-29T22:46:43;20.10;99.90
20139;DHT22;10230;51.502;10.800;2022-07-29T22:49:09;20.00;99.90
20139;DHT22;10230;51.502;10.800;2022-07-29T22:51:35;19.90;99.90
20139;DHT22;10230;51.502;10.800;2022-07-29T22:54:01;19.80;99.90
20139;DHT22;10230;51.502;10.800;2022-07-29T22:56:27;19.80;99.90
20139;DHT22;10230;51.502;10.800;2022-07-29T22:58:53;19.70;99.90
20139;DHT22;10230;51.502;10.800;2022-07-29T23:01:22;19.70;99.90
20139;DHT22;10230;51.502;10.800;2022-07-29T23:03:48;19.60;99.90
20139;DHT22;10230;51.502;10.800;2022-07-29T23:06:14;19.60;99.90
20139;DHT22;10230;51.502;10.800;2022-07-29T23:08:40;19.60;99.90
20139;DHT22;10230;51.502;10.800;2022-07-29T23:11:06;19.50;99.90
20139;DHT22;10230;51.502;10.800;2022-07-29T23:13:32;19.50;99.90
20139;DHT22;10230;51.502;10.800;2022-07-29T23:15:59;19.50;99.90
20139;DHT22;10230;51.502;10.800;2022-07-29T23:18:25;19.50;99.90
20139;DHT22;10230;51.502;10.800;2022-07-29T23:20:50;19.50;99.90
20139;DHT22;10230;51.502;10.800;2022-07-29T23:23:16;19.50;99.90
20139;DHT22;10230;51.502;10.800;2022-07-29T23:25:42;19.40;99.90
20139;DHT22;10230;51.502;10.800;2022-07-29T23:28:08;19.40;99.90
20139;DHT22;10230;51.502;10.800;2022-07-29T23:30:34;19.40;99.90
20139;DHT22;10230;51.502;10.800;2022-07-29T23:33:00;19.30;99.90
20139;DHT22;10230;51.502;10.800;2022-07-29T23:35:26;19.30;99.90
20139;DHT22;10230;51.502;10.800;2022-07-29T23:37:52;19.30;99.90
20139;DHT22;10230;51.502;10.800;2022-07-29T23:40:18;19.30;99.90
20139;DHT22;10230;51.502;10.800;2022-07-29T23:42:43;19.30;99.90
20139;DHT22;10230;51.502;10.800;2022-07-29T23:45:11;19.20;99.90
20139;DHT22;10230;51.502;10.800;2022-07-29T23:47:37;19.20;99.90
20139;DHT22;10230;51.502;10.800;2022-07-29T23:50:05;19.20;99.90
20139;DHT22;10230;51.502;10.800;2022-07-29T23:57:22;19.00;99.90
20139;DHT22;10230;51.502;10.800;2022-07-29T23:59:49;19.10;99.90
